sensor_id;sensor_type;location;lat;lon;timestamp;P1;P2;P0
47711;PMS7003;57457;51.634;5.886;2024-03-07T00:06:56;3.6;4.59;1.97
47711;PMS7003;57457;51.634;5.886;2024-03-07T00:20:18;5.17;3.61;2.08
47711;PMS7003;57457;51.634;5.886;2024-03-07T00:47:00;7.93;4.04;1.97
47711;PMS7003;57457;51.634;5.886;2024-03-07T01:00:21;2.64;3.93;1.97
47711;PMS7003;57457;51.634;5.886;2024-03-07T01:13:42;0.96;3.5;1.86
47711;PMS7003;57457;51.634;5.886;2024-03-07T01:27:04;3.97;4.15;1.75
47711;PMS7003;57457;51.634;5.886;2024-03-07T01:40:25;3.73;4.04;1.86
47711;PMS7003;57457;51.634;5.886;2024-03-07T01:53:46;2.88;4.26;1.86
47711;PMS7003;57457;51.634;5.886;2024-03-07T02:07:07;5.05;3.93;2.08
47711;PMS7003;57457;51.634;5.886;2024-03-07T02:33:50;9.25;5.02;2.19
47711;PMS7003;57457;51.634;5.886;2024-03-07T02:47:11;5.65;5.35;2.3
47711;PMS7003;57457;51.634;5.886;2024-03-07T03:13:53;5.53;5.13;1.97
47711;PMS7003;57457;51.634;5.886;2024-03-07T03:27:14;3.36;4.04;2.3
47711;PMS7003;57457;51.634;5.886;2024-03-07T03:40:36;5.77;5.02;2.19
47711;PMS7003;57457;51.634;5.886;2024-03-07T03:53:57;6.13;5.35;2.41
47711;PMS7003;57457;51.634;5.886;2024-03-07T04:07:18;4.21;4.15;2.08
47711;PMS7003;57457;51.634;5.886;2024-03-07T04:20:39;7.69;4.91;2.41
47711;PMS7003;57457;51.634;5.886;2024-03-07T04:34:01;12.85;5.24;2.3
47711;PMS7003;57457;51.634;5.886;2024-03-07T04:47:22;8.29;5.24;2.62
47711;PMS7003;57457;51.634;5.886;2024-03-07T05:00:43;6.01;5.46;2.41
47711;PMS7003;57457;51.634;5.886;2024-03-07T05:14:04;4.81;5.79;2.19
47711;PMS7003;57457;51.634;5.886;2024-03-07T05:27:25;4.93;6.11;2.62
47711;PMS7003;57457;51.634;5.886;2024-03-07T05:40:47;5.77;5.02;2.08
47711;PMS7003;57457;51.634;5.886;2024-03-07T06:07:29;11.53;5.24;2.41
47711;PMS7003;57457;51.634;5.886;2024-03-07T06:20:50;4.69;4.7;2.19
47711;PMS7003;57457;51.634;5.886;2024-03-07T06:34:11;12.85;5.46;2.19
47711;PMS7003;57457;51.634;5.886;2024-03-07T06:47:33;6.61;4.48;2.3
47711;PMS7003;57457;51.634;5.886;2024-03-07T07:00:54;14.77;5.24;2.41
47711;PMS7003;57457;51.634;5.886;2024-03-07T07:14:15;6.61;5.24;2.41
47711;PMS7003;57457;51.634;5.886;2024-03-07T07:27:36;6.13;4.48;2.19
47711;PMS7003;57457;51.634;5.886;2024-03-07T07:40:57;8.77;5.24;2.3
47711;PMS7003;57457;51.634;5.886;2024-03-07T07:54:19;6.85;5.02;2.08
47711;PMS7003;57457;51.634;5.886;2024-03-07T08:07:40;8.05;4.59;2.19
47711;PMS7003;57457;51.634;5.886;2024-03-07T08:21:01;2.52;4.04;2.08
47711;PMS7003;57457;51.634;5.886;2024-03-07T08:34:22;8.29;4.48;1.97
47711;PMS7003;57457;51.634;5.886;2024-03-07T08:47:43;6.49;4.15;1.86
47711;PMS7003;57457;51.634;5.886;2024-03-07T09:01:05;7.09;3.71;1.97
47711;PMS7003;57457;51.634;5.886;2024-03-07T09:14:26;8.41;3.61;1.86
47711;PMS7003;57457;51.634;5.886;2024-03-07T09:27:47;3.48;3.5;1.64
47711;PMS7003;57457;51.634;5.886;2024-03-07T09:41:08;3.0;3.39;1.54
47711;PMS7003;57457;51.634;5.886;2024-03-07T09:54:29;0.24;2.95;1.43
47711;PMS7003;57457;51.634;5.886;2024-03-07T10:07:51;3.85;3.5;1.43
47711;PMS7003;57457;51.634;5.886;2024-03-07T10:21:12;3.73;3.28;1.54
47711;PMS7003;57457;51.634;5.886;2024-03-07T10:34:33;0.72;2.73;1.32
47711;PMS7003;57457;51.634;5.886;2024-03-07T11:01:15;1.2;3.17;1.43
47711;PMS7003;57457;51.634;5.886;2024-03-07T11:14:36;1.44;2.84;1.64
47711;PMS7003;57457;51.634;5.886;2024-03-07T11:27:58;2.88;2.84;1.43
47711;PMS7003;57457;51.634;5.886;2024-03-07T11:41:19;1.56;2.41;1.21
47711;PMS7003;57457;51.634;5.886;2024-03-07T11:54:40;1.92;2.73;1.32
47711;PMS7003;57457;51.634;5.886;2024-03-07T12:21:22;2.52;2.41;1.32
47711;PMS7003;57457;51.634;5.886;2024-03-07T12:34:44;0.01;2.19;1.21
47711;PMS7003;57457;51.634;5.886;2024-03-07T12:48:05;1.32;3.28;1.43
47711;PMS7003;57457;51.634;5.886;2024-03-07T13:01:26;3.0;2.62;1.43
47711;PMS7003;57457;51.634;5.886;2024-03-07T13:14:47;2.4;3.06;1.43
47711;PMS7003;57457;51.634;5.886;2024-03-07T13:28:08;5.53;2.84;1.54
47711;PMS7003;57457;51.634;5.886;2024-03-07T13:41:30;5.29;3.06;1.64
47711;PMS7003;57457;51.634;5.886;2024-03-07T13:54:51;4.21;3.5;1.54
47711;PMS7003;57457;51.634;5.886;2024-03-07T14:08:12;1.92;4.26;1.86
47711;PMS7003;57457;51.634;5.886;2024-03-07T14:21:33;0.36;3.17;1.54
47711;PMS7003;57457;51.634;5.886;2024-03-07T14:34:54;6.61;3.06;1.64
47711;PMS7003;57457;51.634;5.886;2024-03-07T14:48:16;0.6;3.39;1.64
47711;PMS7003;57457;51.634;5.886;2024-03-07T15:01:37;1.56;2.95;1.32
47711;PMS7003;57457;51.634;5.886;2024-03-07T15:14:58;1.68;3.17;1.64
47711;PMS7003;57457;51.634;5.886;2024-03-07T15:28:19;1.44;3.82;1.43
47711;PMS7003;57457;51.634;5.886;2024-03-07T15:55:02;1.08;3.5;1.43
47711;PMS7003;57457;51.634;5.886;2024-03-07T16:08:23;0.96;2.62;1.54
47711;PMS7003;57457;51.634;5.886;2024-03-07T16:21:44;0.72;3.06;1.64
47711;PMS7003;57457;51.634;5.886;2024-03-07T16:35:05;2.64;3.06;1.32
47711;PMS7003;57457;51.634;5.886;2024-03-07T16:48:26;1.08;2.52;1.32
47711;PMS7003;57457;51.634;5.886;2024-03-07T17:01:48;2.16;2.84;1.43
47711;PMS7003;57457;51.634;5.886;2024-03-07T17:15:09;4.09;2.73;1.32
47711;PMS7003;57457;51.634;5.886;2024-03-07T17:28:30;0.6;2.41;1.54
47711;PMS7003;57457;51.634;5.886;2024-03-07T17:55:12;1.32;3.28;1.75
47711;PMS7003;57457;51.634;5.886;2024-03-07T18:21:55;2.52;3.28;1.64
47711;PMS7003;57457;51.634;5.886;2024-03-07T18:48:37;3.73;3.28;1.64
47711;PMS7003;57457;51.634;5.886;2024-03-07T19:01:58;2.52;3.5;1.54
47711;PMS7003;57457;51.634;5.886;2024-03-07T19:15:20;2.28;3.28;1.75
47711;PMS7003;57457;51.634;5.886;2024-03-07T19:28:41;3.36;3.61;1.75
47711;PMS7003;57457;51.634;5.886;2024-03-07T19:42:02;2.04;3.5;1.54
47711;PMS7003;57457;51.634;5.886;2024-03-07T19:55:23;1.32;3.5;1.64
47711;PMS7003;57457;51.634;5.886;2024-03-07T20:08:44;2.28;3.28;1.64
47711;PMS7003;57457;51.634;5.886;2024-03-07T20:22:06;3.0;3.17;1.64
47711;PMS7003;57457;51.634;5.886;2024-03-07T20:35:27;1.44;3.61;1.86
47711;PMS7003;57457;51.634;5.886;2024-03-07T20:48:48;5.41;3.39;1.86
47711;PMS7003;57457;51.634;5.886;2024-03-07T21:02:09;5.89;3.5;1.64
47711;PMS7003;57457;51.634;5.886;2024-03-07T21:15:30;5.65;3.93;1.75
47711;PMS7003;57457;51.634;5.886;2024-03-07T21:28:52;2.88;4.37;1.86
47711;PMS7003;57457;51.634;5.886;2024-03-07T21:42:13;4.45;3.5;1.75
47711;PMS7003;57457;51.634;5.886;2024-03-07T22:08:55;5.05;3.17;1.54
47711;PMS7003;57457;51.634;5.886;2024-03-07T22:22:16;3.36;3.17;1.86
47711;PMS7003;57457;51.634;5.886;2024-03-07T22:35:38;2.4;3.17;1.54
47711;PMS7003;57457;51.634;5.886;2024-03-07T22:48:59;4.69;3.06;1.64
47711;PMS7003;57457;51.634;5.886;2024-03-07T23:02:20;4.69;3.06;1.75
47711;PMS7003;57457;51.634;5.886;2024-03-07T23:15:41;7.21;3.5;1.64
47711;PMS7003;57457;51.634;5.886;2024-03-07T23:29:02;5.05;3.61;1.75
47711;PMS7003;57457;51.634;5.886;2024-03-07T23:42:23;2.76;2.95;1.54
47711;PMS7003;57457;51.634;5.886;2024-03-07T23:55:45;2.16;3.5;1.64
